Time;durP1;ratioP1;P1;durP2;ratioP2;P2;SDS_P1;SDS_P2;PMS_P1;PMS_P2;Temp;Humidity;BMP_temperature;BMP_pressure;BME280_temperature;BME280_humidity;BME280_pressure;Samples;Min_cycle;Max_cycle;Signal;HPM_P1;HPM_P2
2022/12/09 00:01:37;;;;;;;42.13;37.78;;;;;;;;;;5098077;28;20232;-80
2022/12/09 00:04:04;;;;;;;44.10;38.60;;;;;;;;;;5097209;28;20212;-80
2022/12/09 00:06:32;;;;;;;44.17;39.45;;;;;;;;;;5097211;28;20231;-79
2022/12/09 00:08:59;;;;;;;44.15;39.25;;;;;;;;;;5097723;28;20209;-81
2022/12/09 00:11:27;;;;;;;45.72;39.60;;;;;;;;;;5100616;28;20199;-79
2022/12/09 00:13:55;;;;;;;46.90;41.80;;;;;;;;;;5096932;28;20204;-81
2022/12/09 00:16:23;;;;;;;46.22;41.45;;;;;;;;;;5097002;28;20223;-80
2022/12/09 00:18:50;;;;;;;40.83;36.60;;;;;;;;;;5097408;28;20661;-80
2022/12/09 00:21:19;;;;;;;41.47;37.17;;;;;;;;;;5097727;28;20681;-80
2022/12/09 00:23:47;;;;;;;40.13;36.03;;;;;;;;;;5097665;28;20226;-79
2022/12/09 00:26:14;;;;;;;39.15;35.20;;;;;;;;;;5097344;28;20229;-80
2022/12/09 00:28:43;;;;;;;40.15;35.97;;;;;;;;;;5097845;28;20200;-80
2022/12/09 00:31:13;;;;;;;39.33;35.13;;;;;;;;;;5097874;28;20546;-80
2022/12/09 00:33:40;;;;;;;40.88;36.70;;;;;;;;;;5097026;28;20213;-79
2022/12/09 00:36:08;;;;;;;41.28;36.88;;;;;;;;;;5097835;28;20235;-79
2022/12/09 00:38:35;;;;;;;38.63;34.70;;;;;;;;;;5097052;28;20224;-80
2022/12/09 00:41:02;;;;;;;39.92;35.72;;;;;;;;;;5097023;28;20223;-80
2022/12/09 00:43:30;;;;;;;40.05;35.97;;;;;;;;;;5097563;28;20200;-79
2022/12/09 00:45:58;;;;;;;40.35;36.05;;;;;;;;;;5098297;28;20222;-81
2022/12/09 00:48:26;;;;;;;37.13;33.13;;;;;;;;;;5097583;28;20213;-80
2022/12/09 00:50:53;;;;;;;39.58;35.58;;;;;;;;;;5100383;28;20204;-79
2022/12/09 00:53:20;;;;;;;37.90;34.00;;;;;;;;;;5097784;28;20839;-79
2022/12/09 00:55:47;;;;;;;39.10;35.22;;;;;;;;;;5098207;28;20222;-80
2022/12/09 00:58:14;;;;;;;37.92;34.22;;;;;;;;;;5098655;28;20204;-79
2022/12/09 01:00:42;;;;;;;40.50;36.50;;;;;;;;;;5102466;28;20223;-80
2022/12/09 01:03:13;;;;;;;38.90;34.30;;;;;;;;;;5099734;28;20216;-80
2022/12/09 01:05:41;;;;;;;38.50;34.60;;;;;;;;;;5099133;28;20250;-79
2022/12/09 01:08:09;;;;;;;34.80;31.30;;;;;;;;;;5100496;28;20212;-81
2022/12/09 01:10:36;;;;;;;36.60;33.03;;;;;;;;;;5097657;28;20205;-79
2022/12/09 01:13:03;;;;;;;37.30;33.55;;;;;;;;;;5097155;28;20208;-80
2022/12/09 01:15:30;;;;;;;36.72;33.30;;;;;;;;;;5097179;28;20707;-79
2022/12/09 01:17:58;;;;;;;39.15;35.35;;;;;;;;;;5097902;28;20203;-79
2022/12/09 01:20:26;;;;;;;39.35;35.13;;;;;;;;;;5097092;28;20216;-79
2022/12/09 01:22:53;;;;;;;35.28;31.77;;;;;;;;;;5097594;28;20211;-80
2022/12/09 01:25:20;;;;;;;37.30;33.78;;;;;;;;;;5097929;28;20229;-80
2022/12/09 01:27:47;;;;;;;35.45;32.17;;;;;;;;;;5099057;28;20209;-80
2022/12/09 01:30:15;;;;;;;35.60;32.20;;;;;;;;;;5098736;28;20307;-80
2022/12/09 01:32:42;;;;;;;35.10;31.80;;;;;;;;;;5100989;28;20201;-80
2022/12/09 01:35:09;;;;;;;34.67;31.50;;;;;;;;;;5098344;28;20212;-79
2022/12/09 01:37:38;;;;;;;35.80;32.42;;;;;;;;;;5099733;28;20239;-79
2022/12/09 01:40:06;;;;;;;34.13;30.88;;;;;;;;;;5103270;28;20291;-79
2022/12/09 01:42:33;;;;;;;37.78;33.75;;;;;;;;;;5098222;28;20270;-80
2022/12/09 01:45:19;;;;;;;36.75;32.95;;;;;;;;;;5097677;28;20205;-81
2022/12/09 01:47:47;;;;;;;36.75;33.10;;;;;;;;;;5101080;28;20185;-79
2022/12/09 01:50:14;;;;;;;38.72;34.47;;;;;;;;;;5097748;28;20607;-79
2022/12/09 01:52:43;;;;;;;35.38;31.77;;;;;;;;;;5098062;28;20561;-80
2022/12/09 01:55:10;;;;;;;42.95;37.10;;;;;;;;;;5099550;28;20205;-80
2022/12/09 01:57:38;;;;;;;38.08;34.10;;;;;;;;;;5102540;28;20223;-80
2022/12/09 02:00:05;;;;;;;37.25;32.53;;;;;;;;;;5099002;28;20299;-79
2022/12/09 02:02:34;;;;;;;36.60;32.70;;;;;;;;;;5096696;28;20246;-80
2022/12/09 02:05:04;;;;;;;38.33;34.20;;;;;;;;;;5097767;28;20221;-80
2022/12/09 02:07:31;;;;;;;38.58;34.53;;;;;;;;;;5099133;28;20214;-80
2022/12/09 02:10:00;;;;;;;36.40;32.58;;;;;;;;;;5105424;28;20207;-80
2022/12/09 02:12:29;;;;;;;36.78;32.97;;;;;;;;;;5105049;28;20290;-80
2022/12/09 02:15:01;;;;;;;38.38;33.92;;;;;;;;;;5103608;28;20204;-79
2022/12/09 02:17:32;;;;;;;37.05;33.03;;;;;;;;;;5099701;28;20297;-79
2022/12/09 02:20:03;;;;;;;38.40;34.35;;;;;;;;;;5097518;28;20211;-80
2022/12/09 02:22:32;;;;;;;38.00;31.70;;;;;;;;;;5100193;28;20218;-80
2022/12/09 02:25:03;;;;;;;38.67;34.45;;;;;;;;;;5097391;28;20208;-81
2022/12/09 02:27:32;;;;;;;40.53;33.97;;;;;;;;;;5096735;28;20209;-80
2022/12/09 02:30:06;;;;;;;40.00;34.45;;;;;;;;;;5097197;28;20207;-80
2022/12/09 02:32:37;;;;;;;38.50;34.30;;;;;;;;;;5097843;28;20187;-80
2022/12/09 02:35:09;;;;;;;42.53;34.85;;;;;;;;;;5101790;28;20248;-79
2022/12/09 02:37:39;;;;;;;42.00;36.55;;;;;;;;;;5098782;28;20191;-80
2022/12/09 02:40:08;;;;;;;37.25;33.00;;;;;;;;;;5097970;28;20180;-80
2022/12/09 02:42:36;;;;;;;35.47;31.67;;;;;;;;;;5097260;28;20227;-80
2022/12/09 02:45:05;;;;;;;34.75;31.05;;;;;;;;;;5101346;28;20271;-79
2022/12/09 02:47:33;;;;;;;35.95;32.28;;;;;;;;;;5102230;28;20203;-78
2022/12/09 02:50:01;;;;;;;36.17;32.58;;;;;;;;;;5103995;28;20207;-80
2022/12/09 02:52:31;;;;;;;37.97;31.02;;;;;;;;;;5098885;28;20207;-79
2022/12/09 02:54:59;;;;;;;37.60;33.60;;;;;;;;;;5096119;28;20207;-80
2022/12/09 02:57:27;;;;;;;34.58;31.10;;;;;;;;;;5096210;28;20216;-80
2022/12/09 02:59:54;;;;;;;33.72;30.15;;;;;;;;;;5096491;28;20586;-80
2022/12/09 03:02:24;;;;;;;31.70;28.45;;;;;;;;;;5095764;28;20219;-80
2022/12/09 03:04:56;;;;;;;34.15;30.63;;;;;;;;;;5100638;28;20255;-79
2022/12/09 03:07:28;;;;;;;30.25;27.45;;;;;;;;;;5096352;28;20283;-80
2022/12/09 03:10:00;;;;;;;30.90;28.00;;;;;;;;;;5096768;28;20192;-80
2022/12/09 03:12:28;;;;;;;31.90;28.90;;;;;;;;;;5096949;28;20191;-79
2022/12/09 03:14:56;;;;;;;30.08;27.35;;;;;;;;;;5096597;28;20211;-80
2022/12/09 03:17:26;;;;;;;30.35;27.45;;;;;;;;;;5096653;28;20222;-79
2022/12/09 03:19:55;;;;;;;29.20;26.70;;;;;;;;;;5096121;28;20288;-80
2022/12/09 03:22:24;;;;;;;28.95;26.38;;;;;;;;;;5096351;28;20226;-80
2022/12/09 03:24:53;;;;;;;26.42;24.40;;;;;;;;;;5095076;28;20199;-79
2022/12/09 03:27:23;;;;;;;25.67;23.75;;;;;;;;;;5094822;28;20223;-79
2022/12/09 03:29:51;;;;;;;26.73;24.52;;;;;;;;;;5096398;28;20532;-79
2022/12/09 03:32:20;;;;;;;27.60;25.42;;;;;;;;;;5095415;28;20217;-81
2022/12/09 03:34:48;;;;;;;25.48;23.67;;;;;;;;;;5094815;28;20204;-79
2022/12/09 03:37:16;;;;;;;26.65;24.63;;;;;;;;;;5095342;28;20224;-80
2022/12/09 03:39:44;;;;;;;26.20;24.10;;;;;;;;;;5095839;28;20250;-79
2022/12/09 03:42:16;;;;;;;26.02;23.98;;;;;;;;;;5095572;28;20704;-81
2022/12/09 03:44:47;;;;;;;27.80;25.70;;;;;;;;;;5094729;28;20211;-79
2022/12/09 03:47:14;;;;;;;28.38;26.08;;;;;;;;;;5095027;28;20228;-80
2022/12/09 03:49:41;;;;;;;27.17;24.90;;;;;;;;;;5095803;28;20204;-79
2022/12/09 03:52:11;;;;;;;27.65;25.20;;;;;;;;;;5095768;28;20201;-79
2022/12/09 03:54:41;;;;;;;27.08;24.80;;;;;;;;;;5095275;28;20643;-79
2022/12/09 03:57:09;;;;;;;28.15;25.90;;;;;;;;;;5095410;28;20278;-79
2022/12/09 03:59:37;;;;;;;28.90;26.33;;;;;;;;;;5096083;28;20203;-79
2022/12/09 04:02:05;;;;;;;28.30;25.95;;;;;;;;;;5095797;28;20223;-81
2022/12/09 04:04:33;;;;;;;27.48;25.27;;;;;;;;;;5095108;28;20204;-79
2022/12/09 04:07:00;;;;;;;29.60;27.08;;;;;;;;;;5094772;28;20229;-80
2022/12/09 04:09:28;;;;;;;27.13;24.92;;;;;;;;;;5095904;28;20998;-79
2022/12/09 04:11:55;;;;;;;28.88;26.30;;;;;;;;;;5095246;28;20241;-79
2022/12/09 04:14:22;;;;;;;27.05;24.90;;;;;;;;;;5095300;28;20199;-80
2022/12/09 04:16:49;;;;;;;26.92;24.65;;;;;;;;;;5095557;28;20278;-79
2022/12/09 04:19:17;;;;;;;30.35;27.52;;;;;;;;;;5096544;28;20216;-80
2022/12/09 04:21:44;;;;;;;30.38;27.63;;;;;;;;;;5098864;28;20215;-80
2022/12/09 04:24:12;;;;;;;30.27;27.60;;;;;;;;;;5098646;28;20559;-80
2022/12/09 04:26:39;;;;;;;27.65;25.25;;;;;;;;;;5098522;28;20626;-79
2022/12/09 04:29:06;;;;;;;28.70;26.20;;;;;;;;;;5099292;28;20245;-80
2022/12/09 04:31:33;;;;;;;30.00;27.35;;;;;;;;;;5098671;28;20229;-80
2022/12/09 04:34:01;;;;;;;28.27;25.75;;;;;;;;;;5098696;28;20295;-79
2022/12/09 04:36:29;;;;;;;27.73;25.35;;;;;;;;;;5098273;28;20296;-80
2022/12/09 04:38:57;;;;;;;28.83;26.40;;;;;;;;;;5098128;28;20405;-80
2022/12/09 04:41:24;;;;;;;27.73;25.15;;;;;;;;;;5098558;28;20679;-80
2022/12/09 04:43:51;;;;;;;29.05;26.25;;;;;;;;;;5098382;28;20211;-80
2022/12/09 04:46:18;;;;;;;28.38;25.90;;;;;;;;;;5098395;28;20243;-79
2022/12/09 04:48:46;;;;;;;28.40;25.77;;;;;;;;;;5099147;28;20199;-80
2022/12/09 04:51:14;;;;;;;29.02;26.38;;;;;;;;;;5098543;28;20205;-78
2022/12/09 04:53:42;;;;;;;29.13;26.33;;;;;;;;;;5098190;28;20215;-79
2022/12/09 04:56:12;;;;;;;27.60;25.20;;;;;;;;;;5098656;28;20225;-80
2022/12/09 04:58:40;;;;;;;28.33;25.92;;;;;;;;;;5098755;28;20206;-80
2022/12/09 05:01:07;;;;;;;29.63;26.92;;;;;;;;;;5098221;28;20207;-80
2022/12/09 05:03:34;;;;;;;31.92;28.52;;;;;;;;;;5099118;28;20227;-79
2022/12/09 05:06:03;;;;;;;28.50;25.80;;;;;;;;;;5098099;28;20619;-79
2022/12/09 05:08:30;;;;;;;30.40;27.50;;;;;;;;;;5098519;28;20401;-79
2022/12/09 05:10:58;;;;;;;30.45;27.75;;;;;;;;;;5098187;28;20209;-80
2022/12/09 05:13:26;;;;;;;31.40;28.30;;;;;;;;;;5097576;28;20204;-79
2022/12/09 05:15:53;;;;;;;33.08;29.77;;;;;;;;;;5097798;28;20252;-81
2022/12/09 05:18:20;;;;;;;31.58;28.38;;;;;;;;;;5098130;28;20682;-80
2022/12/09 05:20:47;;;;;;;32.17;28.83;;;;;;;;;;5098344;28;20938;-79
2022/12/09 05:23:14;;;;;;;31.60;28.30;;;;;;;;;;5097245;28;20231;-80
2022/12/09 05:25:43;;;;;;;35.30;31.23;;;;;;;;;;5097845;28;20231;-81
2022/12/09 05:28:11;;;;;;;31.55;28.13;;;;;;;;;;5097763;28;20220;-80
2022/12/09 05:30:39;;;;;;;31.40;28.40;;;;;;;;;;5097186;28;20211;-81
2022/12/09 05:33:06;;;;;;;31.15;27.95;;;;;;;;;;5097011;28;20215;-80
2022/12/09 05:35:33;;;;;;;34.25;30.75;;;;;;;;;;5097655;28;20229;-79
2022/12/09 05:38:01;;;;;;;32.60;29.15;;;;;;;;;;5097464;28;20219;-80
2022/12/09 05:40:28;;;;;;;32.30;29.10;;;;;;;;;;5097987;28;20227;-79
2022/12/09 05:42:55;;;;;;;31.90;28.77;;;;;;;;;;5099393;28;20219;-81
2022/12/09 05:45:23;;;;;;;32.28;28.98;;;;;;;;;;5099943;28;20258;-81
2022/12/09 05:47:50;;;;;;;32.25;28.85;;;;;;;;;;5097314;28;20226;-79
2022/12/09 05:50:17;;;;;;;33.03;29.58;;;;;;;;;;5097646;28;20203;-80
2022/12/09 05:52:44;;;;;;;31.95;29.00;;;;;;;;;;5098704;28;20202;-81
2022/12/09 05:55:11;;;;;;;31.90;28.58;;;;;;;;;;5102437;28;20229;-79
2022/12/09 05:57:38;;;;;;;32.40;29.30;;;;;;;;;;5099179;28;20218;-79
2022/12/09 06:00:06;;;;;;;31.60;28.60;;;;;;;;;;5098765;28;20209;-81
2022/12/09 06:02:35;;;;;;;32.83;29.45;;;;;;;;;;5098182;28;20263;-80
2022/12/09 06:05:02;;;;;;;31.73;28.75;;;;;;;;;;5097036;28;20229;-80
2022/12/09 06:07:29;;;;;;;33.78;30.20;;;;;;;;;;5097985;28;20670;-80
2022/12/09 06:09:56;;;;;;;31.13;28.40;;;;;;;;;;5098770;28;20293;-80
2022/12/09 06:12:23;;;;;;;30.65;27.63;;;;;;;;;;5098287;28;20202;-80
2022/12/09 06:14:51;;;;;;;29.98;27.10;;;;;;;;;;5097897;28;20207;-80
2022/12/09 06:17:18;;;;;;;29.55;27.10;;;;;;;;;;5097242;28;20775;-80
2022/12/09 06:19:46;;;;;;;30.67;27.52;;;;;;;;;;5097759;28;20215;-80
2022/12/09 06:22:13;;;;;;;32.30;29.35;;;;;;;;;;5098024;28;20223;-80
2022/12/09 06:24:40;;;;;;;30.27;27.42;;;;;;;;;;5099446;28;20210;-80
2022/12/09 06:27:08;;;;;;;30.48;27.67;;;;;;;;;;5098288;28;20909;-80
2022/12/09 06:29:35;;;;;;;30.55;27.45;;;;;;;;;;5098161;28;20288;-80
2022/12/09 06:32:03;;;;;;;30.20;27.40;;;;;;;;;;5097317;28;20200;-81
2022/12/09 06:34:30;;;;;;;30.48;27.75;;;;;;;;;;5096483;28;20285;-81
2022/12/09 06:36:58;;;;;;;31.05;28.20;;;;;;;;;;5096638;28;20222;-82
2022/12/09 06:39:25;;;;;;;32.85;29.70;;;;;;;;;;5096375;28;20242;-81
2022/12/09 06:41:52;;;;;;;32.13;29.17;;;;;;;;;;5096687;28;20209;-80
2022/12/09 06:44:19;;;;;;;32.28;28.67;;;;;;;;;;5096062;28;20211;-80
2022/12/09 06:46:46;;;;;;;30.92;27.98;;;;;;;;;;5096232;28;20234;-80
2022/12/09 06:49:14;;;;;;;31.15;28.20;;;;;;;;;;5096996;28;20215;-80
2022/12/09 06:51:41;;;;;;;33.63;30.42;;;;;;;;;;5097170;28;20609;-80
2022/12/09 06:54:09;;;;;;;30.85;28.13;;;;;;;;;;5103000;28;20211;-79
2022/12/09 06:56:36;;;;;;;32.55;29.23;;;;;;;;;;5099204;28;20688;-81
2022/12/09 06:59:06;;;;;;;32.45;29.30;;;;;;;;;;5096644;28;20210;-80
2022/12/09 07:01:33;;;;;;;32.88;29.77;;;;;;;;;;5096769;28;20218;-79
2022/12/09 07:04:00;;;;;;;32.78;29.65;;;;;;;;;;5095807;28;20226;-80
2022/12/09 07:06:28;;;;;;;33.28;30.13;;;;;;;;;;5095718;28;20277;-80
2022/12/09 07:08:56;;;;;;;35.60;31.58;;;;;;;;;;5096493;28;20280;-79
2022/12/09 07:11:24;;;;;;;32.63;29.55;;;;;;;;;;5090170;28;20198;-80
2022/12/09 07:13:52;;;;;;;33.42;30.10;;;;;;;;;;5075825;28;20207;-80
2022/12/09 07:16:19;;;;;;;33.10;29.70;;;;;;;;;;5076142;28;20220;-80
2022/12/09 07:18:46;;;;;;;33.55;30.35;;;;;;;;;;5075788;28;20211;-81
2022/12/09 07:21:15;;;;;;;33.05;29.60;;;;;;;;;;5076246;28;20593;-80
2022/12/09 07:23:42;;;;;;;33.72;30.15;;;;;;;;;;5075598;28;20221;-80
2022/12/09 07:26:09;;;;;;;41.65;29.83;;;;;;;;;;5074054;28;20224;-77
2022/12/09 07:28:38;;;;;;;51.83;32.70;;;;;;;;;;5072623;28;20613;-77
2022/12/09 07:31:06;;;;;;;46.08;31.40;;;;;;;;;;5072670;28;20205;-76
2022/12/09 07:33:33;;;;;;;49.92;31.98;;;;;;;;;;5072019;28;20261;-77
2022/12/09 07:36:00;;;;;;;34.83;29.60;;;;;;;;;;5072073;28;20586;-77
2022/12/09 07:38:27;;;;;;;33.20;29.90;;;;;;;;;;5071746;28;20215;-77
2022/12/09 07:40:54;;;;;;;43.50;28.45;;;;;;;;;;5072247;28;20208;-76
2022/12/09 07:43:21;;;;;;;48.38;28.55;;;;;;;;;;5071484;28;20722;-76
2022/12/09 07:45:50;;;;;;;31.65;28.25;;;;;;;;;;5072265;28;20281;-77
2022/12/09 07:48:17;;;;;;;29.67;26.77;;;;;;;;;;5071703;28;20207;-77
2022/12/09 07:50:44;;;;;;;32.78;29.70;;;;;;;;;;5072273;28;20203;-77
2022/12/09 07:53:11;;;;;;;35.67;30.23;;;;;;;;;;5071841;28;20206;-77
2022/12/09 07:55:38;;;;;;;31.77;28.88;;;;;;;;;;5076088;28;20227;-78
2022/12/09 07:58:06;;;;;;;30.95;27.90;;;;;;;;;;5075896;28;20599;-77
2022/12/09 08:00:33;;;;;;;33.55;30.23;;;;;;;;;;5076041;28;20215;-76
2022/12/09 08:03:01;;;;;;;31.45;28.50;;;;;;;;;;5075303;28;20261;-77
2022/12/09 08:05:28;;;;;;;31.73;28.73;;;;;;;;;;5075409;28;20255;-76
2022/12/09 08:07:55;;;;;;;35.53;31.90;;;;;;;;;;5075780;28;20203;-77
2022/12/09 08:10:23;;;;;;;32.55;29.35;;;;;;;;;;5075014;28;20277;-76
2022/12/09 08:12:50;;;;;;;34.15;30.77;;;;;;;;;;5075394;28;20200;-77
2022/12/09 08:15:18;;;;;;;30.90;27.65;;;;;;;;;;5075227;28;20391;-77
2022/12/09 08:17:46;;;;;;;32.78;29.52;;;;;;;;;;5075797;28;20220;-76
2022/12/09 08:20:15;;;;;;;55.17;45.47;;;;;;;;;;5075674;28;20238;-77
2022/12/09 08:22:42;;;;;;;79.45;61.72;;;;;;;;;;5074697;28;20217;-77
2022/12/09 08:25:09;;;;;;;42.78;38.20;;;;;;;;;;5075213;28;20212;-77
2022/12/09 08:27:36;;;;;;;40.63;36.30;;;;;;;;;;5075773;28;20205;-77
2022/12/09 08:30:04;;;;;;;40.85;35.05;;;;;;;;;;5075688;28;20211;-77
2022/12/09 08:32:31;;;;;;;39.65;35.65;;;;;;;;;;5075644;28;20258;-76
2022/12/09 08:34:58;;;;;;;38.15;34.17;;;;;;;;;;5075211;28;20212;-78
2022/12/09 08:37:27;;;;;;;40.10;34.65;;;;;;;;;;5074939;28;20708;-77
2022/12/09 08:39:54;;;;;;;33.88;30.73;;;;;;;;;;5075435;28;20215;-77
2022/12/09 08:42:21;;;;;;;31.83;29.02;;;;;;;;;;5075537;28;20204;-76
2022/12/09 08:44:49;;;;;;;35.20;31.70;;;;;;;;;;5074843;28;20208;-76
2022/12/09 08:47:16;;;;;;;35.50;31.90;;;;;;;;;;5074386;28;20224;-76
2022/12/09 08:49:44;;;;;;;32.55;29.33;;;;;;;;;;5075213;28;20211;-77
2022/12/09 08:52:11;;;;;;;34.90;31.17;;;;;;;;;;5082293;28;20199;-77
2022/12/09 08:54:39;;;;;;;35.53;32.00;;;;;;;;;;5094709;28;20206;-77
2022/12/09 08:57:06;;;;;;;34.78;31.40;;;;;;;;;;5094629;28;20726;-77
2022/12/09 08:59:33;;;;;;;33.35;29.95;;;;;;;;;;5094906;28;20211;-78
2022/12/09 09:02:00;;;;;;;35.20;31.70;;;;;;;;;;5095118;28;20200;-77
2022/12/09 09:04:27;;;;;;;35.58;31.70;;;;;;;;;;5094371;28;20682;-77
2022/12/09 09:06:54;;;;;;;36.45;32.63;;;;;;;;;;5094700;28;20227;-77
2022/12/09 09:09:21;;;;;;;35.33;31.75;;;;;;;;;;5094084;28;20218;-77
2022/12/09 09:11:50;;;;;;;38.83;33.15;;;;;;;;;;5095128;28;20212;-77
2022/12/09 09:14:17;;;;;;;35.58;31.98;;;;;;;;;;5094445;28;20208;-76
2022/12/09 09:16:44;;;;;;;38.20;33.53;;;;;;;;;;5094742;28;20225;-78
2022/12/09 09:19:14;;;;;;;39.83;35.08;;;;;;;;;;5093778;28;20229;-78
2022/12/09 09:21:41;;;;;;;37.60;33.63;;;;;;;;;;5095051;28;20208;-78
2022/12/09 09:24:10;;;;;;;41.15;33.35;;;;;;;;;;5093802;28;20231;-78
2022/12/09 09:26:39;;;;;;;37.72;32.70;;;;;;;;;;5094537;28;20644;-77
2022/12/09 09:29:08;;;;;;;38.90;33.50;;;;;;;;;;5094124;28;20580;-78
2022/12/09 09:31:35;;;;;;;44.40;34.25;;;;;;;;;;5094730;28;20200;-77
2022/12/09 09:34:02;;;;;;;39.33;35.03;;;;;;;;;;5094141;28;20200;-77
2022/12/09 09:36:29;;;;;;;36.67;32.78;;;;;;;;;;5094693;28;20621;-77
2022/12/09 09:38:57;;;;;;;43.80;35.90;;;;;;;;;;5094230;28;20219;-77
2022/12/09 09:41:28;;;;;;;44.17;36.20;;;;;;;;;;5093915;28;20597;-77
2022/12/09 09:43:56;;;;;;;40.05;35.05;;;;;;;;;;5093444;28;20224;-77
2022/12/09 09:46:29;;;;;;;36.35;32.65;;;;;;;;;;5093988;28;20775;-77
2022/12/09 09:48:57;;;;;;;36.22;32.28;;;;;;;;;;5094070;28;20651;-77
2022/12/09 09:51:24;;;;;;;38.28;33.97;;;;;;;;;;5093139;28;20616;-78
2022/12/09 09:53:52;;;;;;;37.10;33.20;;;;;;;;;;5093759;28;20205;-77
2022/12/09 09:56:25;;;;;;;40.10;35.30;;;;;;;;;;5094285;28;20726;-78
2022/12/09 09:58:55;;;;;;;38.38;34.45;;;;;;;;;;5094355;28;20211;-78
2022/12/09 10:01:24;;;;;;;34.85;31.15;;;;;;;;;;5093246;28;20636;-78
2022/12/09 10:03:56;;;;;;;36.00;32.40;;;;;;;;;;5092249;28;20594;-76
2022/12/09 10:06:29;;;;;;;35.78;32.28;;;;;;;;;;5095056;28;20228;-83
2022/12/09 10:08:58;;;;;;;38.63;34.63;;;;;;;;;;5098844;28;20184;-88
2022/12/09 10:11:29;;;;;;;37.42;33.63;;;;;;;;;;5096580;28;20236;-88
2022/12/09 10:14:00;;;;;;;37.95;34.08;;;;;;;;;;5095786;28;20207;-87
2022/12/09 10:16:33;;;;;;;37.42;33.53;;;;;;;;;;5095212;28;20236;-79
2022/12/09 10:19:06;;;;;;;36.30;32.60;;;;;;;;;;5098930;28;20191;-79
2022/12/09 10:21:35;;;;;;;38.30;34.45;;;;;;;;;;5096826;28;20724;-79
2022/12/09 10:24:13;;;;;;;36.70;33.30;;;;;;;;;;5096075;28;20228;-79
2022/12/09 10:26:40;;;;;;;36.63;32.95;;;;;;;;;;5095681;28;20225;-80
2022/12/09 10:29:11;;;;;;;38.05;34.35;;;;;;;;;;5082866;28;20216;-81
2022/12/09 10:31:38;;;;;;;39.53;35.60;;;;;;;;;;5075995;28;20194;-81
2022/12/09 10:34:06;;;;;;;38.72;34.72;;;;;;;;;;5075347;28;20197;-80
2022/12/09 10:36:36;;;;;;;36.88;33.13;;;;;;;;;;5075279;28;20590;-80
2022/12/09 10:39:03;;;;;;;33.97;30.52;;;;;;;;;;5076818;28;20938;-84
2022/12/09 10:44:23;;;;;;;35.47;31.80;;;;;;;;;;5078960;28;20221;-80
2022/12/09 10:46:56;;;;;;;33.83;30.27;;;;;;;;;;5090632;28;20248;-81
2022/12/09 10:49:25;;;;;;;35.95;32.55;;;;;;;;;;5100117;28;20203;-81
2022/12/09 10:51:53;;;;;;;34.90;31.55;;;;;;;;;;5099198;28;20206;-81
2022/12/09 10:54:26;;;;;;;37.00;33.30;;;;;;;;;;5098271;28;20288;-82
2022/12/09 10:57:08;;;;;;;35.15;31.85;;;;;;;;;;5099842;28;20238;-83
2022/12/09 10:59:35;;;;;;;35.67;32.10;;;;;;;;;;5099558;28;20208;-81
2022/12/09 11:02:03;;;;;;;35.40;31.83;;;;;;;;;;5097631;28;20212;-82
2022/12/09 11:04:33;;;;;;;36.33;32.80;;;;;;;;;;5098491;28;20232;-82
2022/12/09 11:07:02;;;;;;;35.00;31.70;;;;;;;;;;5098541;28;20231;-82
2022/12/09 11:09:30;;;;;;;36.25;32.67;;;;;;;;;;5098825;28;20968;-83
2022/12/09 11:11:57;;;;;;;35.05;31.40;;;;;;;;;;5099512;28;20216;-83
2022/12/09 11:14:28;;;;;;;36.78;33.20;;;;;;;;;;5099254;28;20201;-82
2022/12/09 11:16:55;;;;;;;37.08;33.45;;;;;;;;;;5099402;28;20707;-83
2022/12/09 11:19:30;;;;;;;34.03;30.60;;;;;;;;;;5098957;28;20370;-82
2022/12/09 11:22:12;;;;;;;34.50;31.48;;;;;;;;;;5100446;28;20211;-81
2022/12/09 11:24:40;;;;;;;34.45;31.25;;;;;;;;;;5097511;28;20709;-85
2022/12/09 11:27:24;;;;;;;34.55;31.15;;;;;;;;;;5096945;28;20566;-84
2022/12/09 11:30:05;;;;;;;33.25;30.38;;;;;;;;;;5100120;28;20185;-83
2022/12/09 11:32:32;;;;;;;34.50;31.42;;;;;;;;;;5101487;28;20204;-82
2022/12/09 11:34:59;;;;;;;34.17;31.08;;;;;;;;;;5100782;28;20208;-83
2022/12/09 11:37:27;;;;;;;34.10;30.92;;;;;;;;;;5101197;28;20214;-83
2022/12/09 11:39:55;;;;;;;30.95;28.35;;;;;;;;;;5099760;28;20210;-81
2022/12/09 11:42:23;;;;;;;34.85;31.60;;;;;;;;;;5100614;28;20209;-83
2022/12/09 11:44:56;;;;;;;33.47;30.48;;;;;;;;;;5099400;28;20583;-79
2022/12/09 11:47:28;;;;;;;32.42;29.45;;;;;;;;;;5101239;28;20263;-79
2022/12/09 11:49:57;;;;;;;32.65;29.70;;;;;;;;;;5100351;28;20186;-80
2022/12/09 11:52:26;;;;;;;33.17;30.08;;;;;;;;;;5100965;28;20206;-80
2022/12/09 11:55:01;;;;;;;34.00;31.00;;;;;;;;;;5095545;28;20297;-78
2022/12/09 11:57:30;;;;;;;33.63;30.63;;;;;;;;;;5096909;28;20188;-81
2022/12/09 12:00:00;;;;;;;32.85;29.85;;;;;;;;;;5098879;28;20193;-79
2022/12/09 12:02:30;;;;;;;32.42;29.40;;;;;;;;;;5099518;28;20598;-84
2022/12/09 12:05:00;;;;;;;32.55;29.85;;;;;;;;;;5099802;28;20232;-83
2022/12/09 12:07:35;;;;;;;34.40;31.08;;;;;;;;;;5101754;28;20208;-84
2022/12/09 12:10:06;;;;;;;33.05;29.95;;;;;;;;;;5102287;28;20651;-84
2022/12/09 12:12:36;;;;;;;34.03;31.00;;;;;;;;;;5102666;28;20206;-85
2022/12/09 12:15:11;;;;;;;34.97;31.75;;;;;;;;;;5102181;28;20232;-84
2022/12/09 12:17:42;;;;;;;35.05;31.85;;;;;;;;;;5102412;28;20196;-83
2022/12/09 12:20:11;;;;;;;35.00;31.60;;;;;;;;;;5095445;28;20333;-79
2022/12/09 12:22:52;;;;;;;33.53;30.60;;;;;;;;;;5095097;28;20691;-78
2022/12/09 12:25:33;;;;;;;34.83;31.55;;;;;;;;;;5094468;28;20699;-89
2022/12/09 12:28:06;;;;;;;32.85;29.65;;;;;;;;;;5095880;28;20235;-81
2022/12/09 12:30:35;;;;;;;32.72;29.80;;;;;;;;;;5095723;28;20641;-78
2022/12/09 12:33:06;;;;;;;33.83;30.83;;;;;;;;;;5095296;28;20616;-78
2022/12/09 12:35:41;;;;;;;34.83;31.60;;;;;;;;;;5096093;28;20232;-77
2022/12/09 12:38:15;;;;;;;34.42;31.23;;;;;;;;;;5095477;28;20295;-78
2022/12/09 12:40:48;;;;;;;34.05;31.10;;;;;;;;;;5095324;28;20196;-78
2022/12/09 12:46:26;;;;;;;30.73;27.88;;;;;;;;;;5058310;28;20285;-78
2022/12/09 12:49:05;;;;;;;34.50;31.60;;;;;;;;;;5095457;28;20225;-78
2022/12/09 12:51:37;;;;;;;33.83;30.58;;;;;;;;;;5095063;28;20677;-78
2022/12/09 12:54:14;;;;;;;32.22;29.42;;;;;;;;;;5094655;28;20636;-76
2022/12/09 12:56:47;;;;;;;32.72;29.70;;;;;;;;;;5094716;28;20704;-78
2022/12/09 12:59:17;;;;;;;34.00;30.92;;;;;;;;;;5095414;28;20197;-78
2022/12/09 13:01:51;;;;;;;34.95;31.80;;;;;;;;;;5094548;28;20210;-77
2022/12/09 13:04:22;;;;;;;35.72;32.40;;;;;;;;;;5094586;28;20260;-78
2022/12/09 13:06:51;;;;;;;35.53;32.28;;;;;;;;;;5095113;28;20224;-78
2022/12/09 13:09:20;;;;;;;36.38;33.00;;;;;;;;;;5095380;28;20287;-78
2022/12/09 13:11:55;;;;;;;33.78;30.83;;;;;;;;;;5095180;28;20207;-77
2022/12/09 13:14:24;;;;;;;35.03;31.50;;;;;;;;;;5094717;28;20191;-77
2022/12/09 13:16:51;;;;;;;35.13;31.83;;;;;;;;;;5094151;28;20229;-76
2022/12/09 13:19:21;;;;;;;35.28;31.70;;;;;;;;;;5095087;28;20216;-77
2022/12/09 13:21:48;;;;;;;34.15;31.30;;;;;;;;;;5094823;28;20208;-77
2022/12/09 13:24:25;;;;;;;33.85;30.75;;;;;;;;;;5094333;28;20225;-78
2022/12/09 13:26:56;;;;;;;33.17;30.33;;;;;;;;;;5094734;28;20224;-77
2022/12/09 13:29:30;;;;;;;34.70;31.55;;;;;;;;;;5094900;28;20197;-77
2022/12/09 13:32:01;;;;;;;34.58;31.35;;;;;;;;;;5094833;28;20575;-76
2022/12/09 13:34:33;;;;;;;35.00;31.90;;;;;;;;;;5093047;28;20578;-77
2022/12/09 13:37:00;;;;;;;33.65;30.55;;;;;;;;;;5094733;28;20257;-77
2022/12/09 13:39:45;;;;;;;34.08;31.23;;;;;;;;;;5094250;28;20208;-78
2022/12/09 13:45:16;;;;;;;32.90;30.10;;;;;;;;;;5093716;28;20211;-77
2022/12/09 13:47:43;;;;;;;34.47;31.20;;;;;;;;;;5094543;28;20552;-79
2022/12/09 13:50:23;;;;;;;33.92;30.42;;;;;;;;;;5094645;28;20205;-78
2022/12/09 13:52:52;;;;;;;36.53;32.92;;;;;;;;;;5093802;28;20217;-78
2022/12/09 13:55:22;;;;;;;33.28;30.33;;;;;;;;;;5093260;28;20723;-79
2022/12/09 13:57:53;;;;;;;32.92;30.05;;;;;;;;;;5095433;28;20198;-76
2022/12/09 14:00:22;;;;;;;34.80;31.50;;;;;;;;;;5095542;28;20255;-78
2022/12/09 14:02:53;;;;;;;33.70;30.70;;;;;;;;;;5094198;28;20215;-77
2022/12/09 14:05:21;;;;;;;33.45;30.25;;;;;;;;;;5093055;28;20708;-77
2022/12/09 14:07:50;;;;;;;37.85;34.17;;;;;;;;;;5093704;28;20558;-78
2022/12/09 14:10:37;;;;;;;34.97;31.63;;;;;;;;;;5093656;28;20204;-77
2022/12/09 14:13:18;;;;;;;39.35;35.67;;;;;;;;;;5093482;28;20212;-77
2022/12/09 14:15:47;;;;;;;39.45;33.33;;;;;;;;;;5093302;28;20277;-78
2022/12/09 14:18:29;;;;;;;36.63;33.08;;;;;;;;;;5093890;28;20204;-77
2022/12/09 14:21:15;;;;;;;37.47;34.13;;;;;;;;;;5093913;28;20195;-77
2022/12/09 14:24:05;;;;;;;35.58;31.98;;;;;;;;;;5093339;28;20291;-78
2022/12/09 14:26:37;;;;;;;35.78;32.50;;;;;;;;;;5093550;28;20221;-77
2022/12/09 14:29:05;;;;;;;35.38;31.88;;;;;;;;;;5093765;28;20543;-76
2022/12/09 14:31:50;;;;;;;34.22;31.13;;;;;;;;;;5093672;28;20216;-77
2022/12/09 14:34:31;;;;;;;35.70;32.35;;;;;;;;;;5092760;28;20663;-78
2022/12/09 14:37:04;;;;;;;34.92;31.38;;;;;;;;;;5093510;28;20231;-77